createdAt,value
2019-04-07T00:01:19.815Z,99295.61
2019-04-07T00:03:49.480Z,99303.13
2019-04-07T00:06:19.078Z,99304.91
2019-04-07T00:08:48.274Z,99302.44
2019-04-07T00:11:17.541Z,99300.36
2019-04-07T00:13:46.925Z,99301.85
2019-04-07T00:16:16.757Z,99304.99
2019-04-07T00:18:46.069Z,99304.15
2019-04-07T00:21:15.258Z,99301.98
2019-04-07T00:23:44.419Z,99305.52
2019-04-07T00:26:13.548Z,99308.64
2019-04-07T00:28:43.650Z,99307.82
2019-04-07T00:31:13.379Z,99305.74
2019-04-07T00:33:42.698Z,99307.09
2019-04-07T00:36:11.797Z,99304.00
2019-04-07T00:38:40.908Z,99308.41
2019-04-07T00:41:10.201Z,99306.69
2019-04-07T00:43:39.552Z,99304.08
2019-04-07T00:46:08.902Z,99298.94
2019-04-07T00:48:38.576Z,99309.55
2019-04-07T00:51:08.190Z,99312.77
2019-04-07T00:53:37.555Z,99317.22
2019-04-07T00:56:06.693Z,99309.81
2019-04-07T00:58:35.779Z,99314.20
2019-04-07T01:01:06.555Z,99312.89
2019-04-07T01:03:35.634Z,99312.47
2019-04-07T01:06:05.085Z,99310.30
2019-04-07T01:08:34.241Z,99310.35
2019-04-07T01:11:03.517Z,99312.56
2019-04-07T01:13:32.683Z,99317.89
2019-04-07T01:16:01.818Z,99317.49
2019-04-07T01:18:33.919Z,99316.22
2019-04-07T01:21:03.738Z,99314.95
2019-04-07T01:23:33.611Z,99322.43
2019-04-07T01:26:03.210Z,99316.73
2019-04-07T01:28:32.847Z,99321.18
2019-04-07T01:31:02.345Z,99322.64
2019-04-07T01:33:31.569Z,99326.63
2019-04-07T01:36:00.834Z,99322.73
2019-04-07T01:38:30.619Z,99324.98
2019-04-07T01:41:19.525Z,99321.96
2019-04-07T01:43:55.869Z,99326.36
2019-04-07T01:46:56.045Z,99323.91
2019-04-07T01:49:43.471Z,99321.54
2019-04-07T01:52:34.841Z,99326.56
2019-04-07T01:55:18.118Z,99327.05
2019-04-07T01:58:04.844Z,99316.50
2019-04-07T02:00:48.351Z,99320.88
2019-04-07T02:03:51.541Z,99315.55
2019-04-07T02:06:32.015Z,99311.66
2019-04-07T02:09:22.577Z,99315.61
2019-04-07T02:12:04.997Z,99309.45
2019-04-07T02:14:56.352Z,99309.41
2019-04-07T02:18:02.546Z,99310.27
2019-04-07T02:21:01.054Z,99315.63
2019-04-07T02:23:49.413Z,99311.31
2019-04-07T02:26:55.677Z,99315.84
2019-04-07T02:29:50.064Z,99320.71
2019-04-07T02:32:38.279Z,99323.77
2019-04-07T02:35:20.894Z,99320.25
2019-04-07T02:37:58.446Z,99325.51
2019-04-07T02:40:38.402Z,99321.16
2019-04-07T02:43:15.944Z,99319.89
2019-04-07T02:45:53.597Z,99325.63
2019-04-07T02:48:47.629Z,99325.66
2019-04-07T02:51:38.846Z,99324.79
2019-04-07T02:54:22.789Z,99319.55
2019-04-07T02:57:07.982Z,99321.28
2019-04-07T03:00:02.440Z,99323.48
2019-04-07T03:02:43.565Z,99323.13
2019-04-07T03:05:42.275Z,99319.21
2019-04-07T03:08:39.693Z,99325.36
2019-04-07T03:11:16.090Z,99336.81
2019-04-07T03:14:05.722Z,99328.11
2019-04-07T03:16:44.013Z,99335.63
2019-04-07T03:19:18.027Z,99337.41
2019-04-07T03:22:00.949Z,99335.24
2019-04-07T03:24:53.059Z,99334.38
2019-04-07T03:27:28.290Z,99339.20
2019-04-07T03:30:15.303Z,99333.52
2019-04-07T03:33:05.153Z,99336.16
2019-04-07T03:35:45.958Z,99339.69
2019-04-07T03:38:33.535Z,99338.39
2019-04-07T03:41:13.498Z,99340.21
2019-04-07T03:43:51.577Z,99338.48
2019-04-07T03:46:42.936Z,99342.47
2019-04-07T03:49:23.623Z,99337.27
2019-04-07T03:52:07.724Z,99341.23
2019-04-07T03:55:11.037Z,99342.60
2019-04-07T03:57:54.937Z,99340.86
2019-04-07T04:01:13.702Z,99342.55
2019-04-07T04:03:49.733Z,99340.34
2019-04-07T04:06:38.792Z,99336.46
2019-04-07T04:09:15.716Z,99336.94
2019-04-07T04:11:58.408Z,99337.84
2019-04-07T04:14:31.942Z,99340.50
2019-04-07T04:17:02.038Z,99338.33
2019-04-07T04:19:31.978Z,99337.46
2019-04-07T04:22:01.936Z,99337.91
2019-04-07T04:24:31.349Z,99339.71
2019-04-07T04:27:01.003Z,99341.47
2019-04-07T04:29:30.139Z,99339.73
2019-04-07T04:31:59.737Z,99341.05
2019-04-07T04:34:28.852Z,99337.11
2019-04-07T04:36:58.053Z,99344.55
2019-04-07T04:39:27.274Z,99346.28
2019-04-07T04:41:56.396Z,99347.20
2019-04-07T04:44:25.764Z,99353.37
2019-04-07T04:46:54.873Z,99361.27
2019-04-07T04:49:23.980Z,99360.87
2019-04-07T04:51:54.024Z,99359.61
2019-04-07T04:54:23.388Z,99366.59
2019-04-07T04:56:53.463Z,99367.48
2019-04-07T04:59:22.751Z,99367.47
2019-04-07T05:01:51.860Z,99376.66
2019-04-07T05:04:21.592Z,99372.32
2019-04-07T05:06:51.560Z,99373.20
2019-04-07T05:09:21.120Z,99374.97
2019-04-07T05:11:50.604Z,99380.22
2019-04-07T05:14:20.407Z,99382.84
2019-04-07T05:16:49.535Z,99387.22
2019-04-07T05:19:19.240Z,99386.34
2019-04-07T05:21:48.471Z,99384.15
2019-04-07T05:24:17.991Z,99385.45
2019-04-07T05:26:48.538Z,99393.30
2019-04-07T05:29:17.904Z,99394.16
2019-04-07T05:31:47.841Z,99391.52
2019-04-07T05:34:20.564Z,99397.58
2019-04-07T05:36:47.900Z,99399.31
2019-04-07T05:39:17.415Z,99397.54
2019-04-07T05:41:48.161Z,99403.66
2019-04-07T05:44:17.854Z,99400.14
2019-04-07T05:46:49.463Z,99402.75
2019-04-07T05:49:18.672Z,99410.56
2019-04-07T05:51:48.630Z,99414.88
2019-04-07T05:54:19.758Z,99412.66
2019-04-07T05:56:49.234Z,99414.78
2019-04-07T05:59:18.458Z,99416.47
2019-04-07T06:01:49.880Z,99422.98
2019-04-07T06:04:19.237Z,99418.94
2019-04-07T06:06:52.685Z,99421.07
2019-04-07T06:09:20.763Z,99424.94
2019-04-07T06:11:50.051Z,99425.73
2019-04-07T06:14:19.339Z,99421.75
2019-04-07T06:16:52.533Z,99424.70
2019-04-07T06:19:19.332Z,99419.40
2019-04-07T06:21:49.612Z,99423.21
2019-04-07T06:24:21.817Z,99421.36
2019-04-07T06:26:50.363Z,99410.28
2019-04-07T06:29:20.024Z,99411.45
2019-04-07T06:31:49.525Z,99409.95
2019-04-07T06:34:18.795Z,99406.70
2019-04-07T06:36:51.641Z,99407.39
2019-04-07T06:39:19.931Z,99411.13
2019-04-07T06:41:49.202Z,99413.95
2019-04-07T06:44:20.960Z,99312.84
2019-04-07T06:47:09.790Z,99413.97
2019-04-07T06:49:50.996Z,99418.52
2019-04-07T06:52:41.039Z,99415.59
2019-04-07T06:55:33.375Z,99413.48
2019-04-07T06:58:38.438Z,99413.55
2019-04-07T07:01:30.659Z,99410.06
2019-04-07T07:04:25.399Z,99414.05
2019-04-07T07:07:15.924Z,99413.14
2019-04-07T07:10:00.141Z,99409.44
2019-04-07T07:12:47.668Z,99401.58
2019-04-07T07:15:39.640Z,99405.30
2019-04-07T07:18:28.358Z,99398.98
2019-04-07T07:21:03.743Z,99401.78
2019-04-07T07:23:36.422Z,99396.98
2019-04-07T07:26:06.058Z,99394.16
2019-04-07T07:28:36.032Z,99397.15
2019-04-07T07:31:05.761Z,99394.04
2019-04-07T07:33:38.929Z,99396.45
2019-04-07T07:36:05.760Z,99390.68
2019-04-07T07:38:34.903Z,99390.97
2019-04-07T07:41:04.793Z,99385.72
2019-04-07T07:43:34.217Z,99392.79
2019-04-07T07:46:03.432Z,99388.45
2019-04-07T07:48:32.599Z,99395.30
2019-04-07T07:51:02.406Z,99393.22
2019-04-07T07:53:31.673Z,99390.91
2019-04-07T07:56:01.007Z,99391.91
2019-04-07T07:58:32.727Z,99387.05
2019-04-07T08:01:01.427Z,99385.30
2019-04-07T08:03:31.464Z,99387.98
2019-04-07T08:06:04.671Z,99395.77
2019-04-07T08:08:31.670Z,99394.92
2019-04-07T08:11:02.632Z,99390.18
2019-04-07T08:13:32.477Z,99389.67
2019-04-07T08:16:02.003Z,99394.44
2019-04-07T08:18:31.195Z,99395.97
2019-04-07T08:21:00.376Z,99395.05
2019-04-07T08:23:29.685Z,99397.39
2019-04-07T08:25:59.134Z,99389.55
2019-04-07T08:28:28.333Z,99393.80
2019-04-07T08:30:57.642Z,99395.37
2019-04-07T08:33:28.759Z,99400.04
2019-04-07T08:35:57.988Z,99398.22
2019-04-07T08:38:28.220Z,99400.19
2019-04-07T08:40:57.718Z,99399.84
2019-04-07T08:43:27.589Z,99404.07
2019-04-07T08:45:56.873Z,99399.12
2019-04-07T08:48:26.794Z,99400.95
2019-04-07T08:50:58.687Z,99406.86
2019-04-07T08:53:26.982Z,99406.17
2019-04-07T08:55:56.998Z,99403.90
2019-04-07T08:58:29.000Z,99402.61
2019-04-07T09:00:57.467Z,99402.61
2019-04-07T09:03:26.606Z,99401.47
2019-04-07T09:05:57.425Z,99397.76
2019-04-07T09:08:26.666Z,99402.98
2019-04-07T09:11:04.584Z,99404.80
2019-04-07T09:13:34.262Z,99408.69
2019-04-07T09:16:21.009Z,99405.42
2019-04-07T09:19:04.385Z,99411.59
2019-04-07T09:21:52.540Z,99407.84
2019-04-07T09:24:41.642Z,99406.31
2019-04-07T09:27:30.040Z,99406.65
2019-04-07T09:30:18.384Z,99413.62
2019-04-07T09:33:05.993Z,99416.86
2019-04-07T09:36:03.655Z,99418.66
2019-04-07T09:38:58.045Z,99414.36
2019-04-07T09:41:36.362Z,99416.41
2019-04-07T09:44:25.405Z,99414.00
2019-04-07T09:47:15.907Z,99408.45
2019-04-07T09:50:11.348Z,99409.81
2019-04-07T09:53:08.724Z,99412.90
2019-04-07T09:56:08.865Z,99413.19
2019-04-07T09:58:53.452Z,99406.93
2019-04-07T10:01:31.988Z,99408.31
2019-04-07T10:04:32.312Z,99414.84
2019-04-07T10:07:29.565Z,99409.39
2019-04-07T10:10:17.169Z,99410.41
2019-04-07T10:13:00.633Z,99411.58
2019-04-07T10:15:57.704Z,99407.61
2019-04-07T10:18:46.004Z,99404.96
2019-04-07T10:21:32.777Z,99405.58
2019-04-07T10:24:17.007Z,99405.44
2019-04-07T10:27:03.577Z,99405.48
2019-04-07T10:29:39.831Z,99401.14
2019-04-07T10:32:25.593Z,99401.63
2019-04-07T10:35:09.886Z,99398.30
2019-04-07T10:38:01.745Z,99402.69
2019-04-07T10:40:56.689Z,99396.50
2019-04-07T10:43:56.818Z,99398.17
2019-04-07T10:46:43.901Z,99399.87
2019-04-07T10:49:35.142Z,99397.08
2019-04-07T10:52:21.568Z,99395.43
2019-04-07T10:55:16.574Z,99393.88
2019-04-07T10:58:05.470Z,99386.95
2019-04-07T11:00:52.665Z,99389.02
2019-04-07T11:03:51.699Z,99391.39
2019-04-07T11:06:40.900Z,99385.71
2019-04-07T11:09:32.146Z,99386.91
2019-04-07T11:12:15.454Z,99388.09
2019-04-07T11:15:02.530Z,99389.89
2019-04-07T11:17:41.984Z,99395.11
2019-04-07T11:20:29.926Z,99388.92
2019-04-07T11:23:16.568Z,99396.73
2019-04-07T11:26:07.914Z,99385.13
2019-04-07T11:28:56.780Z,99391.01
2019-04-07T11:31:46.006Z,99389.77
2019-04-07T11:34:36.913Z,99388.57
2019-04-07T11:37:12.968Z,99387.57
2019-04-07T11:39:52.329Z,99382.45
2019-04-07T11:42:58.976Z,99390.26
2019-04-07T11:45:37.782Z,99391.76
2019-04-07T11:48:28.453Z,99388.17
2019-04-07T11:51:20.534Z,99385.24
2019-04-07T11:54:27.089Z,99379.02
2019-04-07T11:57:05.565Z,99385.77
2019-04-07T11:59:41.541Z,99384.39
2019-04-07T12:02:45.496Z,99381.80
2019-04-07T12:05:33.724Z,99379.06
2019-04-07T12:08:35.213Z,99371.02
2019-04-07T12:11:18.313Z,99376.67
2019-04-07T12:14:17.039Z,99375.94
2019-04-07T12:17:09.428Z,99381.14
2019-04-07T12:19:57.171Z,99381.78
2019-04-07T12:22:52.764Z,99382.22
2019-04-07T12:26:00.112Z,99385.41
2019-04-07T12:28:49.936Z,99377.82
2019-04-07T12:31:29.807Z,99388.23
2019-04-07T12:34:33.334Z,99394.84
2019-04-07T12:37:11.023Z,99384.59
2019-04-07T12:39:50.943Z,99382.64
2019-04-07T12:42:47.093Z,99385.54
2019-04-07T12:45:28.510Z,99380.44
2019-04-07T12:48:10.305Z,99381.67
2019-04-07T12:51:01.990Z,99374.64
2019-04-07T12:53:50.427Z,99381.70
2019-04-07T12:56:42.285Z,99378.15
2019-04-07T12:59:39.467Z,99375.32
2019-04-07T13:02:28.493Z,99376.30
2019-04-07T13:05:15.439Z,99370.38
2019-04-07T13:08:00.493Z,99369.98
2019-04-07T13:10:49.404Z,99373.92
2019-04-07T13:13:37.439Z,99369.77
2019-04-07T13:16:26.464Z,99371.62
2019-04-07T13:19:24.195Z,99365.25
2019-04-07T13:22:13.146Z,99359.72
2019-04-07T13:25:13.115Z,99364.24
2019-04-07T13:28:04.350Z,99373.61
2019-04-07T13:31:07.548Z,99358.23
2019-04-07T13:33:46.776Z,99363.31
2019-04-07T13:36:51.851Z,99361.00
2019-04-07T13:39:49.132Z,99361.94
2019-04-07T13:42:37.718Z,99354.33
2019-04-07T13:45:31.227Z,99352.26
2019-04-07T13:48:13.564Z,99355.55
2019-04-07T13:50:58.660Z,99354.37
2019-04-07T13:53:52.710Z,99351.27
2019-04-07T13:56:48.134Z,99350.41
2019-04-07T13:59:32.677Z,99347.53
2019-04-07T14:02:26.392Z,99352.02
2019-04-07T14:04:59.895Z,99345.28
2019-04-07T14:08:04.044Z,99352.75
2019-04-07T14:11:01.442Z,99352.70
2019-04-07T14:13:44.715Z,99345.06
2019-04-07T14:16:32.282Z,99348.45
2019-04-07T14:19:21.059Z,99347.86
2019-04-07T14:22:09.000Z,99346.34
2019-04-07T14:24:47.212Z,99346.02
2019-04-07T14:27:39.637Z,99345.54
2019-04-07T14:30:29.137Z,99343.06
2019-04-07T14:33:15.509Z,99344.03
2019-04-07T14:35:55.410Z,99345.81
2019-04-07T14:38:53.042Z,99342.09
2019-04-07T14:42:00.951Z,99333.63
2019-04-07T14:44:30.355Z,99339.61
2019-04-07T14:47:21.838Z,99340.64
2019-04-07T14:50:23.192Z,99344.89
2019-04-07T14:53:13.263Z,99347.70
2019-04-07T14:55:52.217Z,99348.61
2019-04-07T14:58:58.349Z,99338.75
2019-04-07T15:02:04.661Z,99340.27
2019-04-07T15:04:40.777Z,99343.22
2019-04-07T15:07:28.047Z,99343.60
2019-04-07T15:10:01.799Z,99351.30
2019-04-07T15:12:34.975Z,99346.53
2019-04-07T15:15:08.370Z,99347.88
2019-04-07T15:17:36.960Z,99346.37
2019-04-07T15:20:07.622Z,99348.34
2019-04-07T15:22:36.781Z,99354.66
2019-04-07T15:25:07.643Z,99350.88
2019-04-07T15:27:36.984Z,99352.34
2019-04-07T15:30:07.592Z,99347.78
2019-04-07T15:32:36.691Z,99354.63
2019-04-07T15:35:06.314Z,99348.84
2019-04-07T15:37:36.587Z,99351.30
2019-04-07T15:40:08.251Z,99353.31
2019-04-07T15:42:42.797Z,99348.69
2019-04-07T15:45:12.070Z,99352.25
2019-04-07T15:47:40.417Z,99355.15
2019-04-07T15:50:09.881Z,99355.57
2019-04-07T15:52:42.141Z,99350.99
2019-04-07T15:55:11.549Z,99350.61
2019-04-07T15:57:40.919Z,99365.69
2019-04-07T16:00:11.256Z,99356.42
2019-04-07T16:02:42.167Z,99357.77
2019-04-07T16:05:11.718Z,99359.32
2019-04-07T16:07:41.648Z,99363.21
2019-04-07T16:10:11.671Z,99361.31
2019-04-07T16:12:47.427Z,99369.76
2019-04-07T16:15:15.848Z,99364.86
2019-04-07T16:17:46.507Z,99366.01
2019-04-07T16:20:22.934Z,99365.47
2019-04-07T16:22:47.953Z,99369.10
2019-04-07T16:25:17.160Z,99366.19
2019-04-07T16:27:47.488Z,99368.70
2019-04-07T16:30:19.000Z,99371.77
2019-04-07T16:32:48.099Z,99377.56
2019-04-07T16:35:18.261Z,99376.45
2019-04-07T16:37:47.926Z,99376.77
2019-04-07T16:40:17.172Z,99375.05
2019-04-07T16:43:03.058Z,99373.84
2019-04-07T16:45:18.020Z,99377.12
2019-04-07T16:47:47.805Z,99378.66
2019-04-07T16:50:18.890Z,99381.59
2019-04-07T16:52:48.486Z,99377.41
2019-04-07T16:55:39.984Z,99387.45
2019-04-07T16:58:09.702Z,99384.42
2019-04-07T17:00:39.869Z,99388.67
2019-04-07T17:03:10.036Z,99393.08
2019-04-07T17:05:39.838Z,99391.06
2019-04-07T17:08:09.083Z,99391.16
2019-04-07T17:10:50.633Z,99395.59
2019-04-07T17:13:32.105Z,99402.28
2019-04-07T17:15:52.878Z,99393.95
2019-04-07T17:18:43.062Z,99395.28
2019-04-07T17:21:15.651Z,99394.22
2019-04-07T17:23:45.613Z,99396.25
2019-04-07T17:26:15.161Z,99402.09
2019-04-07T17:28:45.982Z,99405.38
2019-04-07T17:31:15.385Z,99405.00
2019-04-07T17:33:44.600Z,99409.86
2019-04-07T17:36:17.673Z,99411.08
2019-04-07T17:39:06.827Z,99417.96
2019-04-07T17:41:36.077Z,99411.17
2019-04-07T17:44:17.637Z,99422.68
2019-04-07T17:47:04.910Z,99430.59
2019-04-07T17:49:54.482Z,99427.65
2019-04-07T17:52:44.686Z,99427.94
2019-04-07T17:55:36.282Z,99434.59
2019-04-07T17:58:27.510Z,99440.53
2019-04-07T18:01:15.880Z,99438.78
2019-04-07T18:04:02.681Z,99442.23
2019-04-07T18:07:03.597Z,99438.13
2019-04-07T18:09:43.801Z,99445.52
2019-04-07T18:12:35.756Z,99441.83
2019-04-07T18:15:31.611Z,99448.09
2019-04-07T18:18:21.292Z,99451.33
2019-04-07T18:21:13.328Z,99452.66
2019-04-07T18:23:59.837Z,99463.52
2019-04-07T18:26:32.986Z,99460.84
2019-04-07T18:29:15.524Z,99460.63
2019-04-07T18:31:51.998Z,99467.30
2019-04-07T18:34:58.416Z,99469.75
2019-04-07T18:37:41.212Z,99483.42
2019-04-07T18:40:37.254Z,99481.20
2019-04-07T18:43:15.710Z,99483.48
2019-04-07T18:46:18.168Z,99493.13
2019-04-07T18:49:15.818Z,99495.34
2019-04-07T18:52:04.057Z,99499.38
2019-04-07T18:54:53.212Z,99503.89
2019-04-07T18:57:42.661Z,99503.30
2019-04-07T19:00:35.089Z,99509.60
2019-04-07T19:03:11.809Z,99510.19
2019-04-07T19:06:16.551Z,99518.64
2019-04-07T19:09:01.006Z,99516.85
2019-04-07T19:12:13.385Z,99521.83
2019-04-07T19:14:59.734Z,99526.16
2019-04-07T19:17:42.482Z,99524.76
2019-04-07T19:20:37.295Z,99533.19
2019-04-07T19:23:26.314Z,99530.38
2019-04-07T19:26:29.176Z,99530.70
2019-04-07T19:29:10.487Z,99540.16
2019-04-07T19:32:05.836Z,99541.22
2019-04-07T19:34:57.271Z,99548.88
2019-04-07T19:37:48.404Z,99552.72
2019-04-07T19:40:31.464Z,99548.79
2019-04-07T19:43:22.774Z,99543.05
2019-04-07T19:46:05.257Z,99548.75
2019-04-07T19:48:52.337Z,99549.52
2019-04-07T19:51:48.211Z,99559.23
2019-04-07T19:54:39.952Z,99551.13
2019-04-07T19:57:31.168Z,99547.41
2019-04-07T20:00:10.981Z,99546.37
2019-04-07T20:02:53.164Z,99547.27
2019-04-07T20:05:40.844Z,99549.83
2019-04-07T20:08:26.928Z,99551.45
2019-04-07T20:11:07.617Z,99550.95
2019-04-07T20:14:12.558Z,99553.13
2019-04-07T20:17:00.984Z,99557.99
2019-04-07T20:19:56.231Z,99554.73
2019-04-07T20:22:39.304Z,99561.17
2019-04-07T20:25:24.568Z,99560.21
2019-04-07T20:28:17.458Z,99562.70
2019-04-07T20:31:20.828Z,99563.02
2019-04-07T20:33:55.021Z,99568.20
2019-04-07T20:36:46.197Z,99564.02
2019-04-07T20:39:29.481Z,99564.21
2019-04-07T20:42:21.955Z,99571.11
2019-04-07T20:45:04.248Z,99566.95
2019-04-07T20:47:54.553Z,99575.17
2019-04-07T20:50:43.314Z,99568.25
2019-04-07T20:53:31.101Z,99571.50
2019-04-07T20:56:16.850Z,99571.84
2019-04-07T20:59:11.769Z,99503.63
2019-04-07T21:02:06.704Z,99569.41
2019-04-07T21:04:58.162Z,99576.39
2019-04-07T21:07:34.186Z,99572.96
2019-04-07T21:10:29.498Z,99577.40
2019-04-07T21:13:21.603Z,99579.69
2019-04-07T21:16:08.195Z,99574.01
2019-04-07T21:19:06.851Z,99579.08
2019-04-07T21:22:05.515Z,99576.97
2019-04-07T21:24:52.977Z,99576.59
2019-04-07T21:27:33.756Z,99580.20
2019-04-07T21:30:22.758Z,99580.29
2019-04-07T21:33:09.493Z,99575.11
2019-04-07T21:36:09.126Z,99579.80
2019-04-07T21:39:05.821Z,99579.51
2019-04-07T21:41:54.173Z,99576.69
2019-04-07T21:44:38.490Z,99580.80
2019-04-07T21:47:18.545Z,99586.22
2019-04-07T21:50:24.232Z,99585.93
2019-04-07T21:52:59.189Z,99584.72
2019-04-07T21:55:41.818Z,99581.81
2019-04-07T21:58:47.546Z,99586.44
2019-04-07T22:01:30.411Z,99587.58
2019-04-07T22:04:19.949Z,99586.11
2019-04-07T22:07:07.154Z,99590.69
2019-04-07T22:09:57.626Z,99482.16
2019-04-07T22:12:30.211Z,99601.05
2019-04-07T22:14:57.680Z,99594.61
2019-04-07T22:17:27.525Z,99602.77
2019-04-07T22:19:56.908Z,99596.30
2019-04-07T22:22:26.868Z,99599.47
2019-04-07T22:24:56.898Z,99600.44
2019-04-07T22:27:28.313Z,99601.45
2019-04-07T22:29:59.462Z,99596.72
2019-04-07T22:32:27.704Z,99597.69
2019-04-07T22:34:56.849Z,99600.47
2019-04-07T22:37:26.242Z,99603.22
2019-04-07T22:39:59.090Z,99605.06
2019-04-07T22:42:26.255Z,99608.71
2019-04-07T22:44:56.051Z,99606.62
2019-04-07T22:47:25.180Z,99604.58
2019-04-07T22:49:54.322Z,99603.77
2019-04-07T22:52:23.758Z,99601.71
2019-04-07T22:54:52.910Z,99601.45
2019-04-07T22:57:22.046Z,99597.58
2019-04-07T22:59:51.177Z,99605.54
2019-04-07T23:02:20.284Z,99602.02
2019-04-07T23:04:50.281Z,99596.41
2019-04-07T23:07:20.192Z,99598.66
2019-04-07T23:09:49.651Z,99343.41
2019-04-07T23:12:18.982Z,99601.03
2019-04-07T23:14:48.086Z,99604.61
2019-04-07T23:17:17.618Z,99604.22
2019-04-07T23:19:46.830Z,99605.18
2019-04-07T23:22:15.950Z,99599.50
2019-04-07T23:24:45.303Z,99606.26
2019-04-07T23:27:14.573Z,99602.94
2019-04-07T23:29:44.377Z,99600.98
2019-04-07T23:32:13.496Z,99606.34
2019-04-07T23:34:43.461Z,99608.59
2019-04-07T23:37:14.313Z,99613.45
2019-04-07T23:39:43.970Z,99610.06
2019-04-07T23:42:13.190Z,99609.83
2019-04-07T23:44:42.298Z,99612.60
2019-04-07T23:47:11.434Z,99612.70
2019-04-07T23:49:40.562Z,99610.97
2019-04-07T23:52:09.663Z,99614.48
2019-04-07T23:54:39.722Z,99614.50
2019-04-07T23:57:08.901Z,99613.19
2019-04-07T23:59:38.893Z,99613.23
